San Francisco, CA

3:13 PM PDT on May 25, 2015 (GMT -0700)
The Mission: Even the weather is hip | | Change Station
CLOSE
Current Station
Personal Weather Station
Location: San Francisco, CA
Elevation: 65 ft
Nearby Weather Stations

Elev 65 ft 37.75 °N, 122.41 °W | Updated 1 second ago

Overcast
Overcast
57.2 °F
Feels Like 57.2 °F
N
7.7
Wind Variable Wind from WNW
Gusts 16.1 mph

Today
High -- | Low -- °F
--% Chance of Precip.
Yesterday
High -- | Low -- °F
Precip. -- in
5:52 AM 8:20 PM
First Quarter, 52% visible
Pressure 29.99 in
Visibility 10.0 miles
Clouds Few 1100 ft
Scattered Clouds 1400 ft
Mostly Cloudy 1900 ft
Dew Point 51 °F
Humidity 81%
Rainfall 0.00 in
Snow Depth Not available.
UV 4.8 out of 12
Pollen 6.20 out of 12
Air Quality Not available.
Flu Activity Sporadic
METAR KSFO 252156Z 26016KT 10SM FEW011 SCT014 BKN019 16/09 A2999 RMK AO2 SLP154 T01610094

More Conditions Fewer Conditions

Pressure 29.99 in
Visibility 10.0 miles
Clouds Few 1100 ft
Scattered Clouds 1400 ft
Mostly Cloudy 1900 ft
Dew Point 51 °F
Humidity 81%
Rainfall 0.00 in
Snow Depth Not available.
UV 4.8 out of 12
Pollen 6.20 out of 12
Air Quality Not available.
Flu Activity Sporadic
METAR KSFO 252156Z 26016KT 10SM FEW011 SCT014 BKN019 16/09 A2999 RMK AO2 SLP154 T01610094

More Conditions Fewer Conditions

10-Day Weather Forecast

Almanac

Astronomy

May. 25, 2015 Rise Set
Actual Time
Civil Twilight
Nautical Twilight
Astronomical Twilight
Moon
Length of Visible Light
Length of Day
Tomorrow will be .
, % of the Moon is Illuminated

Today's Extremes

State Highs State Lows

Community

WunderPhotos

Upload Photos

1,824,149 photos uploaded!

WunderBlogs® & News

Nearby

Air Quality

  Air Quality AQ Index Pollutant
Not available.

Snow Depth

Station Depth Elevation

Earthquake Activity

City Distance Mag. Time & Date
Minimum magnitude displayed is 2.5.

Coastal Water Temperatures

Place Temperature

Stations

Nearby Weather Stations

Station Location Temp. Windchill Dew Point Humidity Wind Precip. Elev Updated Type